Time;durP1;ratioP1;P1;durP2;ratioP2;P2;SDS_P1;SDS_P2;PMS_P1;PMS_P2;Temp;Humidity;BMP_temperature;BMP_pressure;BME280_temperature;BME280_humidity;BME280_pressure;Samples;Min_cycle;Max_cycle;Signal;HPM_P1;HPM_P2
2023/04/28 00:00:36;;;;;;;156.85;62.78;;;;;;;;;;5110976;28;20039;-44
2023/04/28 00:03:03;;;;;;;149.50;62.55;;;;;;;;;;5111208;28;20489;-47
2023/04/28 00:05:30;;;;;;;148.35;60.90;;;;;;;;;;5110273;28;20062;-45
2023/04/28 00:07:57;;;;;;;157.48;62.17;;;;;;;;;;5110606;28;20430;-42
2023/04/28 00:10:24;;;;;;;143.43;60.47;;;;;;;;;;5110236;28;20058;-46
2023/04/28 00:12:51;;;;;;;145.93;60.30;;;;;;;;;;5110875;28;20139;-42
2023/04/28 00:15:19;;;;;;;144.00;60.90;;;;;;;;;;5111079;28;20481;-45
2023/04/28 00:17:46;;;;;;;151.98;59.97;;;;;;;;;;5111593;28;20040;-45
2023/04/28 00:20:13;;;;;;;147.55;60.65;;;;;;;;;;5111326;28;20070;-43
2023/04/28 00:22:40;;;;;;;146.18;60.35;;;;;;;;;;5111309;28;20048;-45
2023/04/28 00:25:07;;;;;;;151.63;57.38;;;;;;;;;;5111475;28;20028;-45
2023/04/28 00:27:34;;;;;;;154.38;58.78;;;;;;;;;;5111358;28;20027;-45
2023/04/28 00:30:01;;;;;;;154.05;57.63;;;;;;;;;;5110739;28;20030;-45
2023/04/28 00:32:29;;;;;;;136.57;56.70;;;;;;;;;;5111435;28;20026;-46
2023/04/28 00:34:57;;;;;;;146.63;57.55;;;;;;;;;;5092745;28;20069;-45
2023/04/28 00:37:24;;;;;;;134.32;55.17;;;;;;;;;;5109252;28;20063;-45
2023/04/28 00:40:00;;;;;;;159.05;55.80;;;;;;;;;;5111160;28;20031;-47
2023/04/28 00:42:27;;;;;;;236.48;60.67;;;;;;;;;;5115038;28;20027;-47
2023/04/28 00:44:54;;;;;;;184.82;56.42;;;;;;;;;;5115363;28;20063;-45
2023/04/28 00:47:21;;;;;;;170.77;54.78;;;;;;;;;;5115446;28;20030;-47
2023/04/28 00:49:49;;;;;;;165.35;55.10;;;;;;;;;;5115591;28;20384;-48
2023/04/28 00:52:16;;;;;;;161.80;54.42;;;;;;;;;;5115071;28;20039;-47
2023/04/28 00:54:43;;;;;;;157.38;53.47;;;;;;;;;;5097095;28;20063;-45
2023/04/28 00:57:10;;;;;;;158.45;54.38;;;;;;;;;;5115060;28;20156;-47
2023/04/28 00:59:37;;;;;;;179.63;54.72;;;;;;;;;;5115160;28;20080;-47
2023/04/28 01:02:06;;;;;;;160.35;52.75;;;;;;;;;;5114973;28;20024;-47
2023/04/28 01:04:33;;;;;;;154.95;52.65;;;;;;;;;;5114893;28;20051;-44
2023/04/28 01:07:01;;;;;;;163.18;53.28;;;;;;;;;;5112843;28;20086;-47
2023/04/28 01:09:28;;;;;;;176.75;54.75;;;;;;;;;;5113881;28;20563;-48
2023/04/28 01:11:55;;;;;;;168.10;52.38;;;;;;;;;;5114415;28;20027;-45
2023/04/28 01:14:22;;;;;;;178.18;53.80;;;;;;;;;;5113246;28;20070;-47
2023/04/28 01:16:49;;;;;;;182.75;52.10;;;;;;;;;;5094321;28;20498;-45
2023/04/28 01:19:19;;;;;;;159.82;49.63;;;;;;;;;;5112269;28;20481;-46
2023/04/28 01:21:46;;;;;;;162.73;48.40;;;;;;;;;;5114568;28;20070;-45
2023/04/28 01:24:13;;;;;;;182.02;52.38;;;;;;;;;;5114497;28;20072;-44
2023/04/28 01:26:40;;;;;;;192.20;53.65;;;;;;;;;;5114493;28;20053;-45
2023/04/28 01:29:07;;;;;;;169.10;49.47;;;;;;;;;;5114295;28;20039;-43
2023/04/28 01:31:34;;;;;;;165.80;49.05;;;;;;;;;;5114201;28;20024;-43
2023/04/28 01:34:01;;;;;;;168.18;50.80;;;;;;;;;;5085600;28;20069;-45
2023/04/28 01:36:28;;;;;;;178.00;51.03;;;;;;;;;;5106364;28;20070;-42
2023/04/28 01:38:55;;;;;;;176.65;49.03;;;;;;;;;;5113138;28;20394;-46
2023/04/28 01:41:22;;;;;;;190.55;50.13;;;;;;;;;;5112954;28;20405;-45
2023/04/28 01:43:49;;;;;;;168.95;47.88;;;;;;;;;;5114377;28;20416;-43
2023/04/28 01:46:16;;;;;;;172.05;46.72;;;;;;;;;;5114091;28;20031;-45
2023/04/28 01:48:43;;;;;;;170.43;46.22;;;;;;;;;;5114274;28;20805;-45
2023/04/28 01:51:10;;;;;;;161.82;45.92;;;;;;;;;;5114437;28;20031;-44
2023/04/28 01:53:37;;;;;;;163.23;47.85;;;;;;;;;;5113847;28;20027;-45
2023/04/28 01:56:04;;;;;;;147.63;44.85;;;;;;;;;;5100184;28;20040;-45
2023/04/28 01:58:31;;;;;;;158.25;44.55;;;;;;;;;;5092718;28;20046;-42
2023/04/28 02:00:58;;;;;;;140.40;44.78;;;;;;;;;;5089725;28;20197;-43
2023/04/28 02:03:27;;;;;;;148.20;43.45;;;;;;;;;;5092998;28;20028;-43
2023/04/28 02:05:55;;;;;;;136.02;43.30;;;;;;;;;;5093018;28;20040;-45
2023/04/28 02:08:22;;;;;;;155.50;44.00;;;;;;;;;;5092222;28;20024;-45
2023/04/28 02:10:50;;;;;;;146.73;42.30;;;;;;;;;;5092332;28;20047;-43
2023/04/28 02:13:17;;;;;;;131.38;41.15;;;;;;;;;;5100577;28;20108;-45
2023/04/28 02:15:45;;;;;;;134.38;40.13;;;;;;;;;;5111451;28;20051;-45
2023/04/28 02:18:12;;;;;;;132.95;40.10;;;;;;;;;;5112267;28;20031;-44
2023/04/28 02:20:40;;;;;;;126.78;39.70;;;;;;;;;;5112583;28;20042;-42
2023/04/28 02:23:07;;;;;;;133.23;39.22;;;;;;;;;;5113038;28;20035;-45
2023/04/28 02:25:35;;;;;;;124.18;38.38;;;;;;;;;;5111919;28;20089;-43
2023/04/28 02:28:02;;;;;;;120.00;38.05;;;;;;;;;;5113845;28;20038;-43
2023/04/28 02:30:31;;;;;;;133.02;39.75;;;;;;;;;;5113642;28;20042;-43
2023/04/28 02:32:58;;;;;;;125.03;38.10;;;;;;;;;;5113661;28;20397;-43
2023/04/28 02:35:25;;;;;;;124.53;38.17;;;;;;;;;;5113618;28;20448;-43
2023/04/28 02:37:52;;;;;;;130.52;37.85;;;;;;;;;;5113524;28;20405;-43
2023/04/28 02:40:19;;;;;;;118.18;35.83;;;;;;;;;;5113567;28;20089;-43
2023/04/28 02:42:46;;;;;;;105.68;34.00;;;;;;;;;;5112131;28;20076;-43
2023/04/28 02:45:14;;;;;;;113.85;34.95;;;;;;;;;;5113357;28;20035;-43
2023/04/28 02:47:41;;;;;;;112.63;34.50;;;;;;;;;;5113492;28;20027;-43
2023/04/28 02:50:09;;;;;;;119.78;35.88;;;;;;;;;;5113351;28;20477;-43
2023/04/28 02:52:37;;;;;;;105.38;33.92;;;;;;;;;;5113311;28;20474;-43
2023/04/28 02:55:04;;;;;;;111.35;34.72;;;;;;;;;;5113233;28;20042;-43
2023/04/28 02:57:31;;;;;;;113.57;33.72;;;;;;;;;;5111777;28;20046;-43
2023/04/28 02:59:58;;;;;;;106.43;32.95;;;;;;;;;;5113306;28;20102;-44
2023/04/28 03:02:25;;;;;;;104.18;32.70;;;;;;;;;;5113142;28;20028;-43
2023/04/28 03:04:52;;;;;;;104.85;32.50;;;;;;;;;;5112105;28;20023;-43
2023/04/28 03:07:19;;;;;;;105.30;33.15;;;;;;;;;;5113115;28;20084;-43
2023/04/28 03:09:47;;;;;;;111.43;33.25;;;;;;;;;;5113044;28;20553;-43
2023/04/28 03:12:14;;;;;;;93.68;30.52;;;;;;;;;;5112799;28;20031;-43
2023/04/28 03:14:41;;;;;;;102.90;31.85;;;;;;;;;;5113002;28;20024;-42
2023/04/28 03:17:08;;;;;;;111.70;31.90;;;;;;;;;;5111602;28;20488;-43
2023/04/28 03:19:35;;;;;;;100.53;29.23;;;;;;;;;;5113012;28;20627;-43
2023/04/28 03:22:02;;;;;;;85.88;29.00;;;;;;;;;;5112840;28;20020;-43
2023/04/28 03:24:29;;;;;;;91.35;29.77;;;;;;;;;;5112879;28;20058;-43
2023/04/28 03:26:56;;;;;;;91.95;30.02;;;;;;;;;;5112812;28;20046;-42
2023/04/28 03:29:24;;;;;;;87.20;28.67;;;;;;;;;;5111355;28;20027;-43
2023/04/28 03:31:51;;;;;;;85.82;29.85;;;;;;;;;;5112510;28;20031;-45
2023/04/28 03:34:18;;;;;;;93.85;29.10;;;;;;;;;;5112714;28;20102;-45
2023/04/28 03:36:45;;;;;;;92.95;27.95;;;;;;;;;;5112629;28;20023;-45
2023/04/28 03:39:12;;;;;;;77.88;27.00;;;;;;;;;;5112649;28;20436;-45
2023/04/28 03:41:39;;;;;;;86.53;28.55;;;;;;;;;;5112396;28;20028;-44
2023/04/28 03:44:06;;;;;;;88.03;29.27;;;;;;;;;;5112467;28;20032;-46
2023/04/28 03:46:33;;;;;;;83.25;27.77;;;;;;;;;;5112537;28;20103;-45
2023/04/28 03:49:03;;;;;;;76.38;26.55;;;;;;;;;;5112415;28;20032;-44
2023/04/28 03:51:31;;;;;;;75.18;25.80;;;;;;;;;;5112238;28;20446;-45
2023/04/28 03:53:58;;;;;;;73.45;25.83;;;;;;;;;;5112334;28;20389;-46
2023/04/28 03:56:25;;;;;;;75.55;26.98;;;;;;;;;;5112187;28;20370;-45
2023/04/28 03:58:52;;;;;;;70.07;26.45;;;;;;;;;;5112214;28;20046;-44
2023/04/28 04:01:19;;;;;;;74.75;24.77;;;;;;;;;;5112269;28;20063;-44
2023/04/28 04:03:46;;;;;;;64.60;23.60;;;;;;;;;;5112179;28;20027;-45
2023/04/28 04:06:13;;;;;;;77.28;25.15;;;;;;;;;;5112191;28;20020;-44
2023/04/28 04:08:40;;;;;;;62.97;23.33;;;;;;;;;;5112272;28;20553;-45
2023/04/28 04:11:07;;;;;;;65.00;23.15;;;;;;;;;;5112160;28;20027;-45
2023/04/28 04:13:35;;;;;;;60.55;22.40;;;;;;;;;;5111938;28;20573;-45
2023/04/28 04:16:02;;;;;;;65.93;22.80;;;;;;;;;;5110207;28;20038;-45
2023/04/28 04:18:28;;;;;;;60.15;21.85;;;;;;;;;;5111984;28;20023;-45
2023/04/28 04:20:56;;;;;;;66.45;21.95;;;;;;;;;;5111919;28;20024;-45
2023/04/28 04:23:23;;;;;;;59.30;21.23;;;;;;;;;;5111936;28;20080;-45
2023/04/28 04:25:50;;;;;;;54.47;19.38;;;;;;;;;;5112084;28;20067;-45
2023/04/28 04:28:17;;;;;;;54.60;21.08;;;;;;;;;;5111971;28;20034;-45
2023/04/28 04:30:44;;;;;;;58.47;20.05;;;;;;;;;;5111900;28;20028;-45
2023/04/28 04:33:11;;;;;;;56.03;19.42;;;;;;;;;;5112005;28;20019;-44
2023/04/28 04:35:38;;;;;;;53.97;19.08;;;;;;;;;;5111941;28;20107;-45
2023/04/28 04:38:06;;;;;;;51.90;19.55;;;;;;;;;;5111899;28;20024;-45
2023/04/28 04:40:33;;;;;;;56.80;17.92;;;;;;;;;;5111685;28;20105;-45
2023/04/28 04:43:01;;;;;;;50.10;17.42;;;;;;;;;;5111759;28;20098;-44
2023/04/28 04:45:28;;;;;;;46.00;18.00;;;;;;;;;;5111915;28;20042;-45
2023/04/28 04:47:55;;;;;;;51.28;18.85;;;;;;;;;;5112029;28;20382;-45
2023/04/28 04:50:22;;;;;;;39.75;16.20;;;;;;;;;;5112076;28;20043;-45
2023/04/28 04:52:49;;;;;;;50.60;17.48;;;;;;;;;;5111774;28;20481;-45
2023/04/28 04:55:16;;;;;;;40.88;15.75;;;;;;;;;;5111757;28;20035;-45
2023/04/28 04:57:43;;;;;;;43.72;16.70;;;;;;;;;;5111632;28;20024;-45
2023/04/28 05:00:10;;;;;;;38.55;15.70;;;;;;;;;;5111512;28;20478;-45
2023/04/28 05:02:37;;;;;;;38.47;15.43;;;;;;;;;;5111572;28;20063;-45
2023/04/28 05:05:05;;;;;;;42.40;15.40;;;;;;;;;;5111640;28;20038;-44
2023/04/28 05:07:32;;;;;;;35.53;14.95;;;;;;;;;;5111696;28;20547;-45
2023/04/28 05:09:59;;;;;;;36.65;13.52;;;;;;;;;;5111492;28;20027;-45
2023/04/28 05:12:26;;;;;;;40.10;14.30;;;;;;;;;;5111571;28;20109;-45
2023/04/28 05:14:53;;;;;;;40.70;14.98;;;;;;;;;;5111533;28;20096;-45
2023/04/28 05:17:20;;;;;;;39.67;14.50;;;;;;;;;;5110083;28;20024;-45
2023/04/28 05:19:47;;;;;;;41.45;13.90;;;;;;;;;;5111473;28;20027;-45
2023/04/28 05:22:14;;;;;;;32.85;13.43;;;;;;;;;;5111482;28;20028;-45
2023/04/28 05:24:41;;;;;;;31.30;12.27;;;;;;;;;;5111361;28;20028;-46
2023/04/28 05:27:08;;;;;;;35.50;13.07;;;;;;;;;;5111484;28;20040;-45
2023/04/28 05:29:35;;;;;;;38.38;13.23;;;;;;;;;;5114788;28;20035;-45
2023/04/28 05:32:02;;;;;;;34.42;12.63;;;;;;;;;;5115123;28;20020;-46
2023/04/28 05:34:30;;;;;;;30.17;11.98;;;;;;;;;;5115080;28;20035;-45
2023/04/28 05:36:57;;;;;;;30.58;11.57;;;;;;;;;;5114853;28;20061;-44
2023/04/28 05:39:24;;;;;;;34.13;12.07;;;;;;;;;;5114904;28;20137;-45
2023/04/28 05:41:51;;;;;;;30.75;11.38;;;;;;;;;;5114907;28;20485;-45
2023/04/28 05:44:18;;;;;;;27.77;11.40;;;;;;;;;;5114814;28;20073;-44
2023/04/28 05:46:44;;;;;;;28.15;10.43;;;;;;;;;;5114792;28;20066;-46
2023/04/28 05:49:11;;;;;;;29.98;11.55;;;;;;;;;;5114789;28;20039;-45
2023/04/28 05:51:38;;;;;;;31.48;10.93;;;;;;;;;;5114570;28;20098;-45
2023/04/28 05:54:05;;;;;;;25.70;10.80;;;;;;;;;;5114734;28;20019;-45
2023/04/28 05:56:33;;;;;;;25.60;9.95;;;;;;;;;;5114587;28;20024;-45
2023/04/28 05:59:03;;;;;;;27.90;10.73;;;;;;;;;;5114711;28;20210;-45
2023/04/28 06:01:32;;;;;;;29.48;10.00;;;;;;;;;;5112047;28;20042;-45
2023/04/28 06:03:59;;;;;;;23.23;8.70;;;;;;;;;;5114406;28;20019;-45
2023/04/28 06:06:26;;;;;;;24.48;9.77;;;;;;;;;;5114441;28;20113;-45
2023/04/28 06:08:53;;;;;;;22.08;9.10;;;;;;;;;;5114264;28;20040;-45
2023/04/28 06:11:21;;;;;;;22.60;9.23;;;;;;;;;;5114176;28;20028;-45
2023/04/28 06:13:48;;;;;;;19.40;8.60;;;;;;;;;;5112796;28;20068;-44
2023/04/28 06:16:16;;;;;;;21.38;8.32;;;;;;;;;;5114052;28;20168;-45
2023/04/28 06:18:43;;;;;;;19.33;8.40;;;;;;;;;;5114201;28;20039;-45
2023/04/28 06:21:10;;;;;;;20.58;7.75;;;;;;;;;;5114060;28;20043;-45
2023/04/28 06:23:39;;;;;;;27.25;9.25;;;;;;;;;;5114186;27;20032;-44
2023/04/28 06:26:06;;;;;;;16.02;7.80;;;;;;;;;;5113983;28;20063;-44
2023/04/28 06:28:33;;;;;;;18.38;7.93;;;;;;;;;;5114000;28;20042;-45
2023/04/28 06:31:01;;;;;;;17.55;7.68;;;;;;;;;;5113885;28;20046;-45
2023/04/28 06:33:28;;;;;;;18.38;7.63;;;;;;;;;;5113904;28;20031;-45
2023/04/28 06:35:55;;;;;;;21.95;7.63;;;;;;;;;;5113835;28;20098;-45
2023/04/28 06:38:22;;;;;;;19.23;7.35;;;;;;;;;;5113597;28;20035;-45
2023/04/28 06:40:49;;;;;;;17.38;7.50;;;;;;;;;;5113598;28;20054;-45
2023/04/28 06:43:15;;;;;;;19.83;7.32;;;;;;;;;;5113715;28;20030;-45
2023/04/28 06:45:42;;;;;;;14.75;7.10;;;;;;;;;;5113665;28;20027;-45
2023/04/28 06:48:10;;;;;;;16.65;6.85;;;;;;;;;;5113610;28;20076;-45
2023/04/28 06:50:37;;;;;;;14.23;6.55;;;;;;;;;;5113563;28;20029;-45
2023/04/28 06:53:04;;;;;;;17.92;6.60;;;;;;;;;;5113460;28;20028;-45
2023/04/28 06:55:31;;;;;;;13.85;6.60;;;;;;;;;;5112072;28;20122;-45
2023/04/28 06:57:58;;;;;;;16.83;6.75;;;;;;;;;;5113255;28;20036;-44
2023/04/28 07:00:25;;;;;;;14.13;6.07;;;;;;;;;;5113294;28;20038;-45
2023/04/28 07:02:52;;;;;;;15.93;6.75;;;;;;;;;;5113168;28;20557;-45
2023/04/28 07:05:19;;;;;;;13.65;5.88;;;;;;;;;;5113214;28;20439;-45
2023/04/28 07:07:46;;;;;;;16.25;6.13;;;;;;;;;;5113302;28;20031;-45
2023/04/28 07:10:14;;;;;;;18.33;6.30;;;;;;;;;;5113131;28;20024;-45
2023/04/28 07:12:41;;;;;;;13.90;5.95;;;;;;;;;;5112780;27;20592;-45
2023/04/28 07:15:08;;;;;;;15.13;5.50;;;;;;;;;;5113061;28;20028;-46
2023/04/28 07:17:35;;;;;;;11.77;5.43;;;;;;;;;;5112912;28;20035;-45
2023/04/28 07:20:03;;;;;;;14.00;5.65;;;;;;;;;;5112909;28;20107;-45
2023/04/28 07:22:30;;;;;;;12.70;5.63;;;;;;;;;;5112854;28;20118;-45
2023/04/28 07:24:57;;;;;;;13.55;5.45;;;;;;;;;;5112953;28;20110;-45
2023/04/28 07:27:24;;;;;;;11.02;4.97;;;;;;;;;;5112886;28;20059;-45
2023/04/28 07:29:51;;;;;;;11.10;5.10;;;;;;;;;;5112696;28;20027;-45
2023/04/28 07:32:18;;;;;;;10.98;4.95;;;;;;;;;;5112843;28;20039;-45
2023/04/28 07:34:45;;;;;;;13.80;5.30;;;;;;;;;;5111308;28;20027;-45
2023/04/28 07:37:12;;;;;;;11.45;5.22;;;;;;;;;;5112634;28;20032;-46
2023/04/28 07:39:40;;;;;;;13.10;5.05;;;;;;;;;;5112528;28;20067;-45
2023/04/28 07:42:07;;;;;;;12.90;4.95;;;;;;;;;;5112432;28;20066;-45
2023/04/28 07:44:35;;;;;;;10.82;5.10;;;;;;;;;;5252645;22;20052;-46
2023/04/28 07:47:02;;;;;;;12.88;4.78;;;;;;;;;;5091372;28;20021;-47
2023/04/28 07:49:30;;;;;;;9.82;4.38;;;;;;;;;;5092622;28;20016;-48
2023/04/28 07:51:57;;;;;;;10.52;4.38;;;;;;;;;;5091510;28;20492;-51
2023/04/28 07:54:24;;;;;;;11.95;4.43;;;;;;;;;;5092013;28;20095;-47
2023/04/28 07:56:51;;;;;;;11.75;4.43;;;;;;;;;;5091943;28;20082;-48
2023/04/28 07:59:17;;;;;;;9.82;4.82;;;;;;;;;;5092066;28;20036;-47
2023/04/28 08:01:44;;;;;;;8.93;4.20;;;;;;;;;;5091991;28;20035;-47
2023/04/28 08:04:11;;;;;;;12.38;5.07;;;;;;;;;;5091801;28;20030;-47
2023/04/28 08:06:39;;;;;;;10.50;4.10;;;;;;;;;;5091907;28;20512;-47
2023/04/28 08:09:06;;;;;;;11.13;4.55;;;;;;;;;;5091956;28;20027;-48
2023/04/28 08:11:33;;;;;;;10.25;4.55;;;;;;;;;;5091867;28;20616;-47
2023/04/28 08:14:01;;;;;;;10.82;4.10;;;;;;;;;;5091772;28;20027;-47
2023/04/28 08:16:29;;;;;;;8.07;4.10;;;;;;;;;;5091569;28;20094;-48
2023/04/28 08:18:56;;;;;;;9.23;4.20;;;;;;;;;;5091764;28;20028;-48
2023/04/28 08:21:23;;;;;;;8.27;3.92;;;;;;;;;;5090468;28;20028;-47
2023/04/28 08:23:50;;;;;;;8.35;3.85;;;;;;;;;;5091713;28;20141;-47
2023/04/28 08:26:17;;;;;;;11.02;4.28;;;;;;;;;;5091775;28;20031;-48
2023/04/28 08:28:44;;;;;;;9.98;3.90;;;;;;;;;;5091658;28;20024;-47
2023/04/28 08:31:11;;;;;;;8.88;4.00;;;;;;;;;;5091577;28;20024;-47
2023/04/28 08:33:38;;;;;;;10.73;3.97;;;;;;;;;;5090347;28;20105;-48
2023/04/28 08:36:05;;;;;;;9.93;4.13;;;;;;;;;;5091410;28;20370;-47
2023/04/28 08:38:32;;;;;;;7.78;3.70;;;;;;;;;;5091484;28;20030;-47
2023/04/28 08:40:59;;;;;;;8.95;3.70;;;;;;;;;;5091559;28;20055;-47
2023/04/28 08:43:27;;;;;;;7.45;3.65;;;;;;;;;;5091540;28;20035;-46
2023/04/28 08:45:54;;;;;;;8.68;3.83;;;;;;;;;;5091186;28;20052;-47
2023/04/28 08:48:22;;;;;;;10.15;3.58;;;;;;;;;;5091486;28;20024;-47
2023/04/28 08:50:51;;;;;;;8.13;3.65;;;;;;;;;;5091343;28;20549;-47
2023/04/28 08:53:25;;;;;;;9.30;3.58;;;;;;;;;;5091285;28;20159;-48
2023/04/28 08:55:55;;;;;;;9.10;3.40;;;;;;;;;;5091111;28;20025;-46
2023/04/28 08:58:23;;;;;;;17.35;5.38;;;;;;;;;;5091367;28;20559;-47
2023/04/28 09:00:51;;;;;;;20.65;7.18;;;;;;;;;;5091216;28;20111;-48
2023/04/28 09:03:18;;;;;;;18.33;6.35;;;;;;;;;;5093829;28;20077;-47
2023/04/28 09:05:45;;;;;;;16.40;7.00;;;;;;;;;;5093389;28;20027;-50
2023/04/28 09:08:13;;;;;;;15.40;6.75;;;;;;;;;;5094664;28;20030;-51
2023/04/28 09:10:39;;;;;;;18.10;5.80;;;;;;;;;;5095004;28;20451;-48
2023/04/28 09:13:07;;;;;;;20.98;6.28;;;;;;;;;;5095101;28;20051;-48
2023/04/28 09:15:40;;;;;;;17.63;6.10;;;;;;;;;;5092762;28;20024;-48
2023/04/28 09:18:07;;;;;;;16.15;6.20;;;;;;;;;;5090433;28;20047;-47
2023/04/28 09:20:35;;;;;;;19.50;6.45;;;;;;;;;;5090744;28;20039;-48
2023/04/28 09:23:16;;;;;;;16.42;6.57;;;;;;;;;;5093514;28;20126;-47
2023/04/28 09:26:01;;;;;;;16.52;6.00;;;;;;;;;;5092164;28;20032;-47
2023/04/28 09:28:28;;;;;;;16.08;6.25;;;;;;;;;;5092855;28;20071;-47
2023/04/28 09:30:55;;;;;;;21.88;6.63;;;;;;;;;;5093444;28;20031;-47
2023/04/28 09:33:23;;;;;;;15.15;6.13;;;;;;;;;;5093224;28;20028;-48
2023/04/28 09:35:50;;;;;;;12.25;5.95;;;;;;;;;;5092630;28;20133;-47
2023/04/28 09:38:17;;;;;;;11.80;5.82;;;;;;;;;;5092643;28;20374;-47
2023/04/28 09:40:54;;;;;;;12.45;6.25;;;;;;;;;;5093396;28;20028;-46
2023/04/28 09:43:31;;;;;;;17.25;6.22;;;;;;;;;;5084641;28;20035;-47
2023/04/28 09:46:02;;;;;;;14.30;6.10;;;;;;;;;;5094288;28;20047;-47
2023/04/28 09:48:38;;;;;;;19.05;6.30;;;;;;;;;;5094422;28;20027;-47
2023/04/28 09:51:06;;;;;;;13.27;5.97;;;;;;;;;;5094476;28;20409;-48
2023/04/28 09:53:34;;;;;;;14.55;6.05;;;;;;;;;;5094382;28;20028;-46
2023/04/28 09:56:02;;;;;;;15.68;5.70;;;;;;;;;;5075952;28;20472;-48
2023/04/28 09:58:31;;;;;;;14.55;6.05;;;;;;;;;;5094238;28;20028;-47
2023/04/28 10:01:00;;;;;;;17.23;5.60;;;;;;;;;;5094079;28;20165;-47
2023/04/28 10:03:28;;;;;;;16.73;5.97;;;;;;;;;;5091815;28;20069;-49
2023/04/28 10:05:57;;;;;;;15.05;5.75;;;;;;;;;;5087821;28;20537;-50
2023/04/28 10:08:24;;;;;;;12.70;5.43;;;;;;;;;;5092474;28;20031;-50
2023/04/28 10:10:55;;;;;;;16.50;5.57;;;;;;;;;;5092687;28;20505;-53
2023/04/28 10:13:22;;;;;;;15.03;5.57;;;;;;;;;;5090769;28;20032;-49
2023/04/28 10:15:50;;;;;;;12.13;5.85;;;;;;;;;;5091489;28;20093;-50
2023/04/28 10:18:17;;;;;;;10.05;5.05;;;;;;;;;;5090949;28;20032;-46
2023/04/28 10:20:46;;;;;;;9.85;5.15;;;;;;;;;;5093642;28;20047;-48
2023/04/28 10:23:38;;;;;;;15.50;5.95;;;;;;;;;;5091889;28;20059;-48
2023/04/28 10:26:09;;;;;;;14.18;5.45;;;;;;;;;;5091062;28;20039;-47
2023/04/28 10:28:36;;;;;;;13.93;5.50;;;;;;;;;;5093247;28;20127;-48
2023/04/28 10:31:14;;;;;;;12.38;5.50;;;;;;;;;;5093430;28;20316;-47
2023/04/28 10:33:41;;;;;;;15.20;5.80;;;;;;;;;;5090612;28;20046;-48
2023/04/28 10:36:09;;;;;;;14.98;5.03;;;;;;;;;;5091916;28;20028;-49
2023/04/28 10:38:36;;;;;;;16.50;5.50;;;;;;;;;;5090662;28;20040;-48
2023/04/28 10:41:03;;;;;;;12.15;5.32;;;;;;;;;;5092169;28;20024;-48
2023/04/28 10:43:31;;;;;;;12.63;5.40;;;;;;;;;;5089837;28;20056;-50
2023/04/28 10:46:00;;;;;;;13.63;4.75;;;;;;;;;;5092380;28;20062;-48
2023/04/28 10:48:30;;;;;;;10.15;4.93;;;;;;;;;;5092241;28;20375;-50
2023/04/28 10:51:06;;;;;;;10.63;5.07;;;;;;;;;;5092854;28;20024;-51
2023/04/28 10:53:45;;;;;;;15.90;4.90;;;;;;;;;;5092346;28;20066;-51
2023/04/28 10:56:13;;;;;;;10.23;4.90;;;;;;;;;;5091738;28;20454;-51
2023/04/28 10:58:41;;;;;;;12.98;4.80;;;;;;;;;;5092775;28;20102;-50
2023/04/28 11:01:20;;;;;;;11.10;4.85;;;;;;;;;;5092398;28;20135;-51
2023/04/28 11:03:52;;;;;;;11.27;5.03;;;;;;;;;;5091350;28;20024;-49
2023/04/28 11:06:38;;;;;;;;;;;;;;;;;;5089725;28;20048;-53
2023/04/28 11:09:16;;;;;;;9.05;4.78;;;;;;;;;;5091235;28;19908;-53
2023/04/28 11:12:04;;;;;;;11.20;4.05;;;;;;;;;;5092168;28;20044;-52
2023/04/28 11:14:35;;;;;;;28.83;8.48;;;;;;;;;;5091390;28;20357;-49
2023/04/28 11:17:02;;;;;;;31.20;7.57;;;;;;;;;;5091309;28;20039;-49
2023/04/28 11:19:33;;;;;;;28.40;5.93;;;;;;;;;;5091088;28;20036;-49
2023/04/28 11:22:01;;;;;;;35.10;6.40;;;;;;;;;;5091101;28;20047;-51
2023/04/28 11:24:29;;;;;;;155.15;11.15;;;;;;;;;;5091015;28;20028;-48
2023/04/28 11:26:56;;;;;;;54.33;6.93;;;;;;;;;;5090571;28;20130;-51
2023/04/28 11:29:37;;;;;;;38.78;6.60;;;;;;;;;;5090690;28;20028;-52
2023/04/28 11:32:08;;;;;;;26.48;5.95;;;;;;;;;;5089782;28;20393;-52
2023/04/28 11:34:36;;;;;;;35.17;5.68;;;;;;;;;;5090723;28;20093;-52
2023/04/28 11:37:04;;;;;;;26.67;6.03;;;;;;;;;;5090204;28;20036;-49
2023/04/28 11:39:32;;;;;;;23.05;5.22;;;;;;;;;;5090624;28;20499;-50
2023/04/28 11:42:01;;;;;;;16.85;4.57;;;;;;;;;;5090224;28;20122;-50
2023/04/28 11:44:29;;;;;;;17.42;5.05;;;;;;;;;;5091013;28;20052;-50
2023/04/28 11:46:59;;;;;;;26.63;5.18;;;;;;;;;;5089891;28;20024;-51
2023/04/28 11:49:44;;;;;;;40.22;5.97;;;;;;;;;;5089913;28;20141;-50
2023/04/28 11:52:11;;;;;;;23.80;5.45;;;;;;;;;;5089451;28;20024;-54
2023/04/28 11:54:41;;;;;;;28.63;5.72;;;;;;;;;;5089530;28;20024;-54
2023/04/28 11:57:16;;;;;;;17.85;4.55;;;;;;;;;;5087011;28;20048;-51
2023/04/28 11:59:44;;;;;;;38.22;5.78;;;;;;;;;;5089789;28;20371;-54
2023/04/28 12:02:11;;;;;;;28.48;5.20;;;;;;;;;;5089411;28;20068;-52
2023/04/28 12:04:42;;;;;;;19.55;4.40;;;;;;;;;;5089879;28;20028;-52
2023/04/28 12:07:12;;;;;;;21.85;4.50;;;;;;;;;;5089932;28;20119;-51
2023/04/28 12:09:40;;;;;;;19.23;4.32;;;;;;;;;;5089568;28;20039;-52
2023/04/28 12:12:08;;;;;;;19.75;4.93;;;;;;;;;;5091127;28;20430;-54
2023/04/28 12:14:55;;;;;;;22.17;4.97;;;;;;;;;;5091069;28;20091;-52
2023/04/28 12:17:25;;;;;;;19.15;4.53;;;;;;;;;;5091203;28;20028;-53
2023/04/28 12:19:53;;;;;;;16.23;4.55;;;;;;;;;;5091043;28;20040;-52
2023/04/28 12:22:19;;;;;;;23.88;4.40;;;;;;;;;;5090751;28;20027;-52
2023/04/28 12:24:46;;;;;;;18.50;4.68;;;;;;;;;;5090835;28;20062;-51
2023/04/28 12:27:17;;;;;;;17.75;4.20;;;;;;;;;;5091220;28;20030;-53
2023/04/28 12:29:48;;;;;;;16.52;4.35;;;;;;;;;;5090777;28;20085;-53
2023/04/28 12:32:15;;;;;;;16.48;4.15;;;;;;;;;;5091322;28;20107;-55
2023/04/28 12:34:42;;;;;;;14.43;4.20;;;;;;;;;;5091011;28;20055;-54
2023/04/28 12:37:10;;;;;;;17.92;4.38;;;;;;;;;;5089852;28;20032;-54
2023/04/28 12:39:39;;;;;;;18.10;4.10;;;;;;;;;;5093282;28;20171;-54
2023/04/28 12:42:06;;;;;;;19.27;4.25;;;;;;;;;;5093606;28;20024;-53
2023/04/28 12:44:37;;;;;;;22.73;4.97;;;;;;;;;;5093510;28;20048;-54
2023/04/28 12:47:04;;;;;;;19.27;4.20;;;;;;;;;;5093374;28;20028;-55
2023/04/28 12:59:02;;;;;;;19.08;4.25;;;;;;;;;;5094276;28;20109;-58
2023/04/28 13:01:29;;;;;;;24.30;4.45;;;;;;;;;;5094422;28;20042;-53
2023/04/28 13:03:56;;;;;;;14.57;4.25;;;;;;;;;;5093991;28;20103;-50
2023/04/28 13:06:24;;;;;;;17.80;3.65;;;;;;;;;;5093316;28;20043;-52
2023/04/28 13:08:51;;;;;;;19.45;4.13;;;;;;;;;;5093411;28;20035;-50
2023/04/28 13:11:18;;;;;;;33.88;4.65;;;;;;;;;;5093901;28;20032;-50
2023/04/28 13:13:45;;;;;;;30.83;4.65;;;;;;;;;;5094436;28;20099;-51
2023/04/28 13:16:13;;;;;;;25.88;3.95;;;;;;;;;;5094047;28;20057;-52
2023/04/28 13:18:40;;;;;;;20.95;4.55;;;;;;;;;;5094301;28;20032;-51
2023/04/28 13:21:07;;;;;;;26.77;4.18;;;;;;;;;;5094727;28;20073;-50
2023/04/28 13:23:34;;;;;;;27.25;4.18;;;;;;;;;;5094857;28;20059;-51
2023/04/28 13:26:02;;;;;;;24.00;4.25;;;;;;;;;;5094662;28;20114;-52
2023/04/28 13:28:29;;;;;;;18.90;4.20;;;;;;;;;;5094151;28;20039;-50
2023/04/28 13:30:56;;;;;;;19.98;3.40;;;;;;;;;;5094591;28;20028;-50
2023/04/28 13:33:29;;;;;;;28.92;4.20;;;;;;;;;;5094522;28;20070;-50
2023/04/28 13:35:57;;;;;;;15.48;3.33;;;;;;;;;;5093379;28;20028;-51
2023/04/28 13:38:25;;;;;;;13.63;3.53;;;;;;;;;;5094164;28;20091;-51
2023/04/28 13:40:52;;;;;;;25.98;3.95;;;;;;;;;;5094387;28;20028;-51
2023/04/28 13:43:19;;;;;;;26.70;3.45;;;;;;;;;;5094372;28;20070;-51
2023/04/28 13:45:46;;;;;;;32.00;4.55;;;;;;;;;;5094164;28;20119;-52
2023/04/28 13:48:13;;;;;;;45.55;4.78;;;;;;;;;;5092429;28;20051;-52
2023/04/28 13:50:40;;;;;;;51.72;4.72;;;;;;;;;;5091751;28;20051;-51
2023/04/28 13:53:07;;;;;;;74.00;6.25;;;;;;;;;;5086596;28;20481;-49
2023/04/28 13:55:34;;;;;;;53.97;4.80;;;;;;;;;;5091994;28;20100;-55
2023/04/28 13:58:03;;;;;;;58.85;5.30;;;;;;;;;;5091743;28;20089;-49
2023/04/28 14:00:34;;;;;;;100.40;6.32;;;;;;;;;;5092480;28;20402;-47
2023/04/28 14:03:01;;;;;;;51.38;3.95;;;;;;;;;;5090789;28;20028;-49
2023/04/28 14:05:28;;;;;;;50.35;4.63;;;;;;;;;;5074442;28;20036;-50
2023/04/28 14:07:55;;;;;;;30.05;4.00;;;;;;;;;;5092445;28;20456;-49
2023/04/28 14:10:22;;;;;;;39.17;4.28;;;;;;;;;;5093599;28;20028;-48
2023/04/28 14:12:49;;;;;;;33.92;4.00;;;;;;;;;;5090473;28;20055;-50
2023/04/28 14:15:16;;;;;;;30.33;3.58;;;;;;;;;;5092788;28;20436;-50
2023/04/28 14:17:43;;;;;;;44.45;4.20;;;;;;;;;;5092484;28;20040;-48
2023/04/28 14:20:10;;;;;;;40.13;4.60;;;;;;;;;;5093091;28;20028;-48
2023/04/28 14:22:38;;;;;;;36.47;4.75;;;;;;;;;;5091068;28;20042;-50
2023/04/28 14:25:06;;;;;;;33.08;4.38;;;;;;;;;;5090705;28;20085;-50
2023/04/28 14:27:33;;;;;;;40.03;4.43;;;;;;;;;;5091050;28;20093;-50
2023/04/28 14:30:01;;;;;;;32.03;3.60;;;;;;;;;;5092245;28;20032;-50
2023/04/28 14:32:28;;;;;;;31.75;4.55;;;;;;;;;;5090547;28;20040;-51
2023/04/28 14:34:54;;;;;;;76.60;6.70;;;;;;;;;;5091492;28;20046;-51
2023/04/28 14:37:21;;;;;;;54.40;5.75;;;;;;;;;;5092965;28;20486;-52